sensor_id;sensor_type;location;lat;lon;timestamp;P1;durP1;ratioP1;P2;durP2;ratioP2
26478;SDS011;14163;-26.142;27.992;2022-07-29T00:01:21;19.30;;;16.10;;
26478;SDS011;14163;-26.142;27.992;2022-07-29T00:03:50;18.50;;;16.30;;
26478;SDS011;14163;-26.142;27.992;2022-07-29T00:06:19;18.60;;;16.80;;
26478;SDS011;14163;-26.142;27.992;2022-07-29T00:08:49;19.53;;;16.63;;
26478;SDS011;14163;-26.142;27.992;2022-07-29T00:11:20;18.10;;;15.70;;
26478;SDS011;14163;-26.142;27.992;2022-07-29T00:13:49;16.97;;;15.17;;
26478;SDS011;14163;-26.142;27.992;2022-07-29T00:16:18;20.80;;;16.70;;
26478;SDS011;14163;-26.142;27.992;2022-07-29T00:18:47;21.17;;;16.90;;
26478;SDS011;14163;-26.142;27.992;2022-07-29T00:21:16;20.00;;;16.07;;
26478;SDS011;14163;-26.142;27.992;2022-07-29T00:23:46;22.20;;;17.40;;
26478;SDS011;14163;-26.142;27.992;2022-07-29T00:26:15;19.07;;;15.60;;
26478;SDS011;14163;-26.142;27.992;2022-07-29T00:28:46;22.23;;;16.10;;
26478;SDS011;14163;-26.142;27.992;2022-07-29T00:31:15;23.50;;;17.27;;
26478;SDS011;14163;-26.142;27.992;2022-07-29T00:33:44;21.80;;;15.90;;
26478;SDS011;14163;-26.142;27.992;2022-07-29T00:36:13;18.63;;;15.10;;
26478;SDS011;14163;-26.142;27.992;2022-07-29T00:38:41;19.87;;;15.90;;
26478;SDS011;14163;-26.142;27.992;2022-07-29T00:41:11;18.30;;;15.50;;
26478;SDS011;14163;-26.142;27.992;2022-07-29T00:43:41;20.60;;;15.50;;
26478;SDS011;14163;-26.142;27.992;2022-07-29T00:46:12;19.07;;;15.10;;
26478;SDS011;14163;-26.142;27.992;2022-07-29T00:48:41;20.30;;;16.47;;
26478;SDS011;14163;-26.142;27.992;2022-07-29T00:51:10;17.10;;;15.33;;
26478;SDS011;14163;-26.142;27.992;2022-07-29T00:53:40;21.40;;;16.97;;
26478;SDS011;14163;-26.142;27.992;2022-07-29T00:56:10;21.10;;;17.07;;
26478;SDS011;14163;-26.142;27.992;2022-07-29T00:58:39;19.87;;;15.83;;
26478;SDS011;14163;-26.142;27.992;2022-07-29T01:01:09;19.53;;;15.80;;
26478;SDS011;14163;-26.142;27.992;2022-07-29T01:03:40;17.03;;;14.93;;
26478;SDS011;14163;-26.142;27.992;2022-07-29T01:06:09;20.97;;;15.80;;
26478;SDS011;14163;-26.142;27.992;2022-07-29T01:08:38;18.43;;;15.57;;
26478;SDS011;14163;-26.142;27.992;2022-07-29T01:11:08;19.93;;;16.53;;
26478;SDS011;14163;-26.142;27.992;2022-07-29T01:13:37;20.03;;;16.50;;
26478;SDS011;14163;-26.142;27.992;2022-07-29T01:16:09;20.90;;;16.47;;
26478;SDS011;14163;-26.142;27.992;2022-07-29T01:18:45;20.57;;;16.43;;
26478;SDS011;14163;-26.142;27.992;2022-07-29T01:21:24;22.20;;;15.73;;
26478;SDS011;14163;-26.142;27.992;2022-07-29T01:24:11;19.20;;;16.67;;
26478;SDS011;14163;-26.142;27.992;2022-07-29T01:26:52;21.57;;;16.67;;
26478;SDS011;14163;-26.142;27.992;2022-07-29T01:29:28;20.53;;;16.20;;
26478;SDS011;14163;-26.142;27.992;2022-07-29T01:32:01;20.00;;;16.10;;
26478;SDS011;14163;-26.142;27.992;2022-07-29T01:34:35;22.93;;;16.53;;
26478;SDS011;14163;-26.142;27.992;2022-07-29T01:37:10;21.00;;;16.90;;
26478;SDS011;14163;-26.142;27.992;2022-07-29T01:39:46;25.37;;;17.73;;
26478;SDS011;14163;-26.142;27.992;2022-07-29T01:42:20;25.57;;;16.53;;
26478;SDS011;14163;-26.142;27.992;2022-07-29T01:44:57;23.70;;;17.20;;
26478;SDS011;14163;-26.142;27.992;2022-07-29T01:47:31;24.50;;;18.00;;
26478;SDS011;14163;-26.142;27.992;2022-07-29T01:50:06;20.00;;;17.37;;
26478;SDS011;14163;-26.142;27.992;2022-07-29T01:52:41;20.80;;;18.37;;
26478;SDS011;14163;-26.142;27.992;2022-07-29T01:55:15;24.17;;;19.43;;
26478;SDS011;14163;-26.142;27.992;2022-07-29T01:57:46;25.57;;;18.20;;
26478;SDS011;14163;-26.142;27.992;2022-07-29T02:00:18;27.03;;;17.13;;
26478;SDS011;14163;-26.142;27.992;2022-07-29T02:02:49;27.20;;;18.50;;
26478;SDS011;14163;-26.142;27.992;2022-07-29T02:05:21;25.50;;;21.90;;
26478;SDS011;14163;-26.142;27.992;2022-07-29T02:07:52;32.87;;;23.97;;
26478;SDS011;14163;-26.142;27.992;2022-07-29T02:10:23;35.70;;;27.73;;
26478;SDS011;14163;-26.142;27.992;2022-07-29T02:12:55;32.40;;;25.83;;
26478;SDS011;14163;-26.142;27.992;2022-07-29T02:15:28;29.47;;;23.50;;
26478;SDS011;14163;-26.142;27.992;2022-07-29T02:18:00;27.10;;;21.30;;
26478;SDS011;14163;-26.142;27.992;2022-07-29T02:20:33;27.50;;;20.60;;
26478;SDS011;14163;-26.142;27.992;2022-07-29T02:23:03;25.67;;;20.27;;
26478;SDS011;14163;-26.142;27.992;2022-07-29T02:25:34;23.90;;;18.73;;
26478;SDS011;14163;-26.142;27.992;2022-07-29T02:28:04;27.53;;;19.10;;
26478;SDS011;14163;-26.142;27.992;2022-07-29T02:30:35;22.80;;;17.23;;
26478;SDS011;14163;-26.142;27.992;2022-07-29T02:33:07;20.13;;;17.03;;
26478;SDS011;14163;-26.142;27.992;2022-07-29T02:35:39;24.00;;;18.57;;
26478;SDS011;14163;-26.142;27.992;2022-07-29T02:38:12;23.53;;;18.90;;
26478;SDS011;14163;-26.142;27.992;2022-07-29T02:41:00;25.40;;;19.03;;
26478;SDS011;14163;-26.142;27.992;2022-07-29T02:43:31;23.03;;;18.57;;
26478;SDS011;14163;-26.142;27.992;2022-07-29T02:46:05;22.53;;;16.73;;
26478;SDS011;14163;-26.142;27.992;2022-07-29T02:48:51;21.57;;;17.23;;
26478;SDS011;14163;-26.142;27.992;2022-07-29T02:51:28;18.87;;;16.50;;
26478;SDS011;14163;-26.142;27.992;2022-07-29T02:54:07;24.23;;;17.33;;
26478;SDS011;14163;-26.142;27.992;2022-07-29T02:56:38;21.10;;;16.90;;
26478;SDS011;14163;-26.142;27.992;2022-07-29T02:59:09;23.30;;;18.50;;
26478;SDS011;14163;-26.142;27.992;2022-07-29T03:01:41;22.77;;;19.40;;
26478;SDS011;14163;-26.142;27.992;2022-07-29T03:04:12;21.90;;;17.50;;
26478;SDS011;14163;-26.142;27.992;2022-07-29T03:06:43;21.70;;;18.57;;
26478;SDS011;14163;-26.142;27.992;2022-07-29T03:09:13;22.07;;;17.93;;
26478;SDS011;14163;-26.142;27.992;2022-07-29T03:11:42;23.30;;;18.80;;
26478;SDS011;14163;-26.142;27.992;2022-07-29T03:14:13;23.63;;;17.83;;
26478;SDS011;14163;-26.142;27.992;2022-07-29T03:16:45;26.47;;;18.93;;
26478;SDS011;14163;-26.142;27.992;2022-07-29T03:19:14;22.00;;;17.50;;
26478;SDS011;14163;-26.142;27.992;2022-07-29T03:21:44;18.67;;;16.47;;
26478;SDS011;14163;-26.142;27.992;2022-07-29T03:24:24;25.27;;;17.73;;
26478;SDS011;14163;-26.142;27.992;2022-07-29T03:26:54;22.20;;;17.67;;
26478;SDS011;14163;-26.142;27.992;2022-07-29T03:29:24;19.30;;;17.20;;
26478;SDS011;14163;-26.142;27.992;2022-07-29T03:31:55;21.00;;;17.30;;
26478;SDS011;14163;-26.142;27.992;2022-07-29T03:34:24;21.43;;;19.07;;
26478;SDS011;14163;-26.142;27.992;2022-07-29T03:36:54;20.20;;;17.60;;
26478;SDS011;14163;-26.142;27.992;2022-07-29T03:39:24;22.50;;;17.83;;
26478;SDS011;14163;-26.142;27.992;2022-07-29T03:41:57;20.77;;;18.00;;
26478;SDS011;14163;-26.142;27.992;2022-07-29T03:44:28;27.53;;;19.27;;
26478;SDS011;14163;-26.142;27.992;2022-07-29T03:47:01;24.67;;;18.33;;
26478;SDS011;14163;-26.142;27.992;2022-07-29T03:49:31;21.13;;;18.40;;
26478;SDS011;14163;-26.142;27.992;2022-07-29T03:52:03;22.73;;;19.47;;
26478;SDS011;14163;-26.142;27.992;2022-07-29T03:54:33;21.90;;;18.70;;
26478;SDS011;14163;-26.142;27.992;2022-07-29T03:57:03;25.83;;;18.97;;
26478;SDS011;14163;-26.142;27.992;2022-07-29T03:59:33;26.03;;;20.33;;
26478;SDS011;14163;-26.142;27.992;2022-07-29T04:02:05;23.13;;;19.13;;
26478;SDS011;14163;-26.142;27.992;2022-07-29T04:04:38;28.63;;;20.53;;
26478;SDS011;14163;-26.142;27.992;2022-07-29T04:07:08;27.27;;;20.30;;
26478;SDS011;14163;-26.142;27.992;2022-07-29T04:09:40;19.97;;;17.83;;
26478;SDS011;14163;-26.142;27.992;2022-07-29T04:12:10;23.10;;;19.27;;
26478;SDS011;14163;-26.142;27.992;2022-07-29T04:14:39;22.90;;;20.13;;
26478;SDS011;14163;-26.142;27.992;2022-07-29T04:17:10;23.17;;;18.70;;
26478;SDS011;14163;-26.142;27.992;2022-07-29T04:19:39;24.90;;;20.90;;
26478;SDS011;14163;-26.142;27.992;2022-07-29T04:22:08;21.87;;;19.30;;
26478;SDS011;14163;-26.142;27.992;2022-07-29T04:24:37;32.37;;;21.30;;
26478;SDS011;14163;-26.142;27.992;2022-07-29T04:27:06;27.80;;;20.87;;
26478;SDS011;14163;-26.142;27.992;2022-07-29T04:29:36;23.77;;;20.20;;
26478;SDS011;14163;-26.142;27.992;2022-07-29T04:32:05;32.00;;;21.90;;
26478;SDS011;14163;-26.142;27.992;2022-07-29T04:34:36;27.77;;;21.83;;
26478;SDS011;14163;-26.142;27.992;2022-07-29T04:37:05;25.73;;;20.67;;
26478;SDS011;14163;-26.142;27.992;2022-07-29T04:39:34;28.53;;;20.80;;
26478;SDS011;14163;-26.142;27.992;2022-07-29T04:42:04;24.60;;;20.07;;
26478;SDS011;14163;-26.142;27.992;2022-07-29T04:44:33;27.13;;;22.23;;
26478;SDS011;14163;-26.142;27.992;2022-07-29T04:47:03;30.30;;;21.23;;
26478;SDS011;14163;-26.142;27.992;2022-07-29T04:49:39;29.57;;;22.03;;
26478;SDS011;14163;-26.142;27.992;2022-07-29T04:52:08;26.93;;;20.30;;
26478;SDS011;14163;-26.142;27.992;2022-07-29T04:54:37;25.37;;;21.80;;
26478;SDS011;14163;-26.142;27.992;2022-07-29T04:57:06;24.30;;;21.10;;
26478;SDS011;14163;-26.142;27.992;2022-07-29T04:59:36;26.13;;;21.63;;
26478;SDS011;14163;-26.142;27.992;2022-07-29T05:02:05;30.87;;;23.60;;
26478;SDS011;14163;-26.142;27.992;2022-07-29T05:04:34;26.53;;;22.60;;
26478;SDS011;14163;-26.142;27.992;2022-07-29T05:07:05;33.33;;;23.57;;
26478;SDS011;14163;-26.142;27.992;2022-07-29T05:09:34;33.83;;;25.10;;
26478;SDS011;14163;-26.142;27.992;2022-07-29T05:12:03;34.90;;;24.20;;
26478;SDS011;14163;-26.142;27.992;2022-07-29T05:14:33;33.53;;;23.77;;
26478;SDS011;14163;-26.142;27.992;2022-07-29T05:17:03;33.00;;;24.03;;
26478;SDS011;14163;-26.142;27.992;2022-07-29T05:19:32;27.97;;;23.00;;
26478;SDS011;14163;-26.142;27.992;2022-07-29T05:22:01;30.43;;;22.00;;
26478;SDS011;14163;-26.142;27.992;2022-07-29T05:24:32;28.67;;;23.03;;
26478;SDS011;14163;-26.142;27.992;2022-07-29T05:27:02;23.93;;;21.33;;
26478;SDS011;14163;-26.142;27.992;2022-07-29T05:29:31;34.30;;;23.10;;
26478;SDS011;14163;-26.142;27.992;2022-07-29T05:32:00;25.17;;;22.43;;
26478;SDS011;14163;-26.142;27.992;2022-07-29T05:34:30;26.27;;;22.40;;
26478;SDS011;14163;-26.142;27.992;2022-07-29T05:36:59;31.07;;;23.73;;
26478;SDS011;14163;-26.142;27.992;2022-07-29T05:39:28;30.30;;;23.77;;
26478;SDS011;14163;-26.142;27.992;2022-07-29T05:41:59;28.87;;;23.13;;
26478;SDS011;14163;-26.142;27.992;2022-07-29T05:44:28;25.63;;;22.90;;
26478;SDS011;14163;-26.142;27.992;2022-07-29T05:46:58;27.00;;;21.77;;
26478;SDS011;14163;-26.142;27.992;2022-07-29T05:49:27;30.00;;;23.60;;
26478;SDS011;14163;-26.142;27.992;2022-07-29T05:51:57;28.90;;;22.77;;
26478;SDS011;14163;-26.142;27.992;2022-07-29T05:54:26;28.57;;;23.87;;
26478;SDS011;14163;-26.142;27.992;2022-07-29T05:56:56;31.03;;;25.57;;
26478;SDS011;14163;-26.142;27.992;2022-07-29T05:59:27;33.30;;;24.30;;
26478;SDS011;14163;-26.142;27.992;2022-07-29T06:01:56;27.70;;;23.97;;
26478;SDS011;14163;-26.142;27.992;2022-07-29T06:04:25;31.00;;;24.67;;
26478;SDS011;14163;-26.142;27.992;2022-07-29T06:06:54;29.80;;;24.00;;
26478;SDS011;14163;-26.142;27.992;2022-07-29T06:09:23;28.83;;;22.90;;
26478;SDS011;14163;-26.142;27.992;2022-07-29T06:11:53;29.90;;;23.57;;
26478;SDS011;14163;-26.142;27.992;2022-07-29T06:14:25;30.63;;;24.43;;
26478;SDS011;14163;-26.142;27.992;2022-07-29T06:16:55;30.73;;;25.30;;
26478;SDS011;14163;-26.142;27.992;2022-07-29T06:19:24;30.47;;;24.10;;
26478;SDS011;14163;-26.142;27.992;2022-07-29T06:21:53;36.10;;;23.20;;
26478;SDS011;14163;-26.142;27.992;2022-07-29T06:24:22;29.10;;;23.40;;
26478;SDS011;14163;-26.142;27.992;2022-07-29T06:26:51;28.73;;;24.13;;
26478;SDS011;14163;-26.142;27.992;2022-07-29T06:29:21;27.00;;;23.63;;
26478;SDS011;14163;-26.142;27.992;2022-07-29T06:31:52;26.87;;;22.63;;
26478;SDS011;14163;-26.142;27.992;2022-07-29T06:34:21;35.60;;;24.30;;
26478;SDS011;14163;-26.142;27.992;2022-07-29T06:36:50;31.53;;;23.80;;
26478;SDS011;14163;-26.142;27.992;2022-07-29T06:39:20;25.50;;;22.23;;
26478;SDS011;14163;-26.142;27.992;2022-07-29T06:41:49;32.20;;;24.00;;
26478;SDS011;14163;-26.142;27.992;2022-07-29T06:44:20;25.53;;;21.60;;
26478;SDS011;14163;-26.142;27.992;2022-07-29T06:46:51;27.70;;;19.77;;
26478;SDS011;14163;-26.142;27.992;2022-07-29T06:49:20;20.93;;;18.73;;
26478;SDS011;14163;-26.142;27.992;2022-07-29T06:51:50;26.50;;;19.10;;
26478;SDS011;14163;-26.142;27.992;2022-07-29T06:54:19;25.47;;;19.43;;
26478;SDS011;14163;-26.142;27.992;2022-07-29T06:56:49;22.07;;;19.70;;
26478;SDS011;14163;-26.142;27.992;2022-07-29T06:59:18;22.63;;;18.53;;
26478;SDS011;14163;-26.142;27.992;2022-07-29T07:01:47;20.70;;;17.20;;
26478;SDS011;14163;-26.142;27.992;2022-07-29T07:04:18;21.23;;;18.83;;
26478;SDS011;14163;-26.142;27.992;2022-07-29T07:06:47;22.37;;;18.77;;
26478;SDS011;14163;-26.142;27.992;2022-07-29T07:09:17;21.63;;;18.57;;
26478;SDS011;14163;-26.142;27.992;2022-07-29T07:11:46;20.93;;;18.43;;
26478;SDS011;14163;-26.142;27.992;2022-07-29T07:14:15;20.63;;;18.43;;
26478;SDS011;14163;-26.142;27.992;2022-07-29T07:16:44;22.73;;;18.67;;
26478;SDS011;14163;-26.142;27.992;2022-07-29T07:19:13;18.87;;;16.83;;
26478;SDS011;14163;-26.142;27.992;2022-07-29T07:21:46;21.90;;;18.47;;
26478;SDS011;14163;-26.142;27.992;2022-07-29T07:24:15;18.10;;;15.87;;
26478;SDS011;14163;-26.142;27.992;2022-07-29T07:26:45;20.30;;;17.20;;
26478;SDS011;14163;-26.142;27.992;2022-07-29T07:29:14;20.00;;;16.60;;
26478;SDS011;14163;-26.142;27.992;2022-07-29T07:31:43;20.10;;;17.07;;
26478;SDS011;14163;-26.142;27.992;2022-07-29T07:34:12;19.07;;;16.67;;
26478;SDS011;14163;-26.142;27.992;2022-07-29T07:36:42;26.60;;;18.77;;
26478;SDS011;14163;-26.142;27.992;2022-07-29T07:39:12;20.23;;;18.23;;
26478;SDS011;14163;-26.142;27.992;2022-07-29T07:41:42;21.50;;;17.97;;
26478;SDS011;14163;-26.142;27.992;2022-07-29T07:44:11;23.53;;;19.63;;
26478;SDS011;14163;-26.142;27.992;2022-07-29T07:46:40;21.27;;;18.37;;
26478;SDS011;14163;-26.142;27.992;2022-07-29T07:49:10;21.13;;;14.90;;
26478;SDS011;14163;-26.142;27.992;2022-07-29T07:51:39;20.90;;;17.27;;
26478;SDS011;14163;-26.142;27.992;2022-07-29T07:54:08;20.73;;;15.70;;
26478;SDS011;14163;-26.142;27.992;2022-07-29T07:56:39;20.13;;;16.80;;
26478;SDS011;14163;-26.142;27.992;2022-07-29T07:59:09;20.90;;;17.60;;
26478;SDS011;14163;-26.142;27.992;2022-07-29T08:01:38;21.23;;;15.50;;
26478;SDS011;14163;-26.142;27.992;2022-07-29T08:04:07;17.73;;;14.83;;
26478;SDS011;14163;-26.142;27.992;2022-07-29T08:06:36;23.07;;;15.23;;
26478;SDS011;14163;-26.142;27.992;2022-07-29T08:09:06;19.70;;;15.90;;
26478;SDS011;14163;-26.142;27.992;2022-07-29T08:11:35;19.67;;;15.73;;
26478;SDS011;14163;-26.142;27.992;2022-07-29T08:14:06;19.30;;;16.00;;
26478;SDS011;14163;-26.142;27.992;2022-07-29T08:16:35;18.90;;;16.90;;
26478;SDS011;14163;-26.142;27.992;2022-07-29T08:19:04;22.43;;;19.07;;
26478;SDS011;14163;-26.142;27.992;2022-07-29T08:21:33;18.83;;;16.87;;
26478;SDS011;14163;-26.142;27.992;2022-07-29T08:24:03;27.63;;;16.70;;
26478;SDS011;14163;-26.142;27.992;2022-07-29T08:26:49;19.63;;;16.77;;
26478;SDS011;14163;-26.142;27.992;2022-07-29T08:29:20;17.67;;;15.57;;
26478;SDS011;14163;-26.142;27.992;2022-07-29T08:31:49;19.67;;;17.40;;
26478;SDS011;14163;-26.142;27.992;2022-07-29T08:34:19;17.57;;;14.80;;
26478;SDS011;14163;-26.142;27.992;2022-07-29T08:36:48;20.97;;;15.17;;
26478;SDS011;14163;-26.142;27.992;2022-07-29T08:39:17;19.30;;;16.23;;
26478;SDS011;14163;-26.142;27.992;2022-07-29T08:41:46;18.90;;;16.90;;
26478;SDS011;14163;-26.142;27.992;2022-07-29T08:44:16;24.67;;;17.60;;
26478;SDS011;14163;-26.142;27.992;2022-07-29T08:46:49;22.03;;;18.17;;
26478;SDS011;14163;-26.142;27.992;2022-07-29T08:49:18;19.53;;;17.43;;
26478;SDS011;14163;-26.142;27.992;2022-07-29T08:51:48;21.60;;;18.20;;
26478;SDS011;14163;-26.142;27.992;2022-07-29T08:54:17;22.10;;;19.77;;
26478;SDS011;14163;-26.142;27.992;2022-07-29T08:56:48;16.97;;;14.80;;
26478;SDS011;14163;-26.142;27.992;2022-07-29T08:59:19;16.70;;;13.57;;
26478;SDS011;14163;-26.142;27.992;2022-07-29T09:01:51;17.17;;;14.70;;
26478;SDS011;14163;-26.142;27.992;2022-07-29T09:04:21;20.23;;;14.03;;
26478;SDS011;14163;-26.142;27.992;2022-07-29T09:06:58;16.20;;;14.13;;
26478;SDS011;14163;-26.142;27.992;2022-07-29T09:09:29;16.80;;;14.43;;
26478;SDS011;14163;-26.142;27.992;2022-07-29T09:11:58;20.10;;;13.50;;
26478;SDS011;14163;-26.142;27.992;2022-07-29T09:14:29;16.40;;;13.87;;
26478;SDS011;14163;-26.142;27.992;2022-07-29T09:17:00;19.53;;;14.90;;
26478;SDS011;14163;-26.142;27.992;2022-07-29T09:19:30;20.83;;;14.17;;
26478;SDS011;14163;-26.142;27.992;2022-07-29T09:22:00;15.07;;;13.13;;
26478;SDS011;14163;-26.142;27.992;2022-07-29T09:24:37;15.40;;;12.90;;
26478;SDS011;14163;-26.142;27.992;2022-07-29T09:27:09;19.93;;;13.70;;
26478;SDS011;14163;-26.142;27.992;2022-07-29T09:29:45;17.53;;;14.80;;
26478;SDS011;14163;-26.142;27.992;2022-07-29T09:32:16;14.23;;;12.87;;
26478;SDS011;14163;-26.142;27.992;2022-07-29T09:34:45;17.07;;;12.97;;
26478;SDS011;14163;-26.142;27.992;2022-07-29T09:37:25;14.03;;;12.60;;
26478;SDS011;14163;-26.142;27.992;2022-07-29T09:39:55;13.10;;;10.93;;
26478;SDS011;14163;-26.142;27.992;2022-07-29T09:42:27;13.10;;;11.90;;
26478;SDS011;14163;-26.142;27.992;2022-07-29T09:44:59;15.43;;;11.50;;
26478;SDS011;14163;-26.142;27.992;2022-07-29T09:47:40;18.50;;;13.67;;
26478;SDS011;14163;-26.142;27.992;2022-07-29T09:50:13;14.90;;;13.50;;
26478;SDS011;14163;-26.142;27.992;2022-07-29T09:52:45;12.70;;;11.60;;
26478;SDS011;14163;-26.142;27.992;2022-07-29T09:55:15;10.70;;;9.67;;
26478;SDS011;14163;-26.142;27.992;2022-07-29T09:57:45;13.40;;;10.87;;
26478;SDS011;14163;-26.142;27.992;2022-07-29T10:00:15;12.73;;;11.20;;
26478;SDS011;14163;-26.142;27.992;2022-07-29T10:02:47;13.70;;;12.13;;
26478;SDS011;14163;-26.142;27.992;2022-07-29T10:05:17;11.70;;;10.73;;
26478;SDS011;14163;-26.142;27.992;2022-07-29T10:07:49;12.03;;;10.77;;
26478;SDS011;14163;-26.142;27.992;2022-07-29T10:10:20;9.70;;;9.00;;
26478;SDS011;14163;-26.142;27.992;2022-07-29T10:12:51;11.73;;;10.57;;
26478;SDS011;14163;-26.142;27.992;2022-07-29T10:15:22;12.23;;;11.17;;
26478;SDS011;14163;-26.142;27.992;2022-07-29T10:17:54;11.83;;;10.60;;
26478;SDS011;14163;-26.142;27.992;2022-07-29T10:20:24;12.23;;;10.90;;
26478;SDS011;14163;-26.142;27.992;2022-07-29T10:22:57;11.67;;;10.60;;
26478;SDS011;14163;-26.142;27.992;2022-07-29T10:25:26;11.43;;;10.30;;
26478;SDS011;14163;-26.142;27.992;2022-07-29T10:27:55;12.70;;;11.47;;
26478;SDS011;14163;-26.142;27.992;2022-07-29T10:30:25;12.37;;;11.10;;
26478;SDS011;14163;-26.142;27.992;2022-07-29T10:33:05;11.87;;;10.87;;
26478;SDS011;14163;-26.142;27.992;2022-07-29T10:35:58;11.73;;;10.50;;
26478;SDS011;14163;-26.142;27.992;2022-07-29T10:38:44;11.63;;;10.53;;
26478;SDS011;14163;-26.142;27.992;2022-07-29T10:41:21;11.77;;;10.73;;
26478;SDS011;14163;-26.142;27.992;2022-07-29T10:44:06;13.37;;;11.67;;
26478;SDS011;14163;-26.142;27.992;2022-07-29T10:46:41;12.73;;;10.90;;
26478;SDS011;14163;-26.142;27.992;2022-07-29T10:49:13;16.80;;;10.70;;
26478;SDS011;14163;-26.142;27.992;2022-07-29T10:54:38;11.20;;;10.30;;
26478;SDS011;14163;-26.142;27.992;2022-07-29T10:57:22;11.90;;;10.80;;
26478;SDS011;14163;-26.142;27.992;2022-07-29T11:02:59;11.13;;;10.07;;
26478;SDS011;14163;-26.142;27.992;2022-07-29T11:05:30;11.87;;;10.80;;
26478;SDS011;14163;-26.142;27.992;2022-07-29T11:08:23;12.67;;;11.20;;
26478;SDS011;14163;-26.142;27.992;2022-07-29T11:11:29;13.00;;;11.83;;
26478;SDS011;14163;-26.142;27.992;2022-07-29T11:14:07;12.63;;;11.27;;
26478;SDS011;14163;-26.142;27.992;2022-07-29T11:19:28;11.57;;;10.57;;
26478;SDS011;14163;-26.142;27.992;2022-07-29T11:21:59;12.17;;;11.03;;
26478;SDS011;14163;-26.142;27.992;2022-07-29T11:24:29;12.17;;;11.03;;
26478;SDS011;14163;-26.142;27.992;2022-07-29T11:29:51;12.13;;;11.00;;
26478;SDS011;14163;-26.142;27.992;2022-07-29T11:32:23;15.80;;;13.33;;
26478;SDS011;14163;-26.142;27.992;2022-07-29T11:35:11;15.77;;;14.27;;
26478;SDS011;14163;-26.142;27.992;2022-07-29T11:37:44;13.13;;;11.93;;
26478;SDS011;14163;-26.142;27.992;2022-07-29T11:40:17;12.37;;;11.07;;
26478;SDS011;14163;-26.142;27.992;2022-07-29T11:42:48;11.53;;;10.40;;
26478;SDS011;14163;-26.142;27.992;2022-07-29T11:45:21;11.70;;;10.50;;
26478;SDS011;14163;-26.142;27.992;2022-07-29T11:47:54;11.37;;;10.37;;
26478;SDS011;14163;-26.142;27.992;2022-07-29T11:50:30;14.30;;;12.60;;
26478;SDS011;14163;-26.142;27.992;2022-07-29T11:53:02;15.67;;;11.10;;
26478;SDS011;14163;-26.142;27.992;2022-07-29T11:55:38;11.93;;;10.43;;
26478;SDS011;14163;-26.142;27.992;2022-07-29T11:58:08;14.40;;;12.57;;
26478;SDS011;14163;-26.142;27.992;2022-07-29T12:00:38;11.23;;;10.23;;
26478;SDS011;14163;-26.142;27.992;2022-07-29T12:03:10;13.20;;;11.40;;
26478;SDS011;14163;-26.142;27.992;2022-07-29T12:05:40;14.63;;;12.60;;
26478;SDS011;14163;-26.142;27.992;2022-07-29T12:08:13;13.70;;;12.30;;
26478;SDS011;14163;-26.142;27.992;2022-07-29T12:10:45;13.60;;;12.30;;
26478;SDS011;14163;-26.142;27.992;2022-07-29T12:13:15;13.80;;;12.33;;
26478;SDS011;14163;-26.142;27.992;2022-07-29T12:15:51;14.47;;;13.00;;
26478;SDS011;14163;-26.142;27.992;2022-07-29T12:18:21;13.93;;;12.53;;
26478;SDS011;14163;-26.142;27.992;2022-07-29T12:20:56;13.97;;;12.43;;
26478;SDS011;14163;-26.142;27.992;2022-07-29T12:23:31;14.03;;;11.70;;
26478;SDS011;14163;-26.142;27.992;2022-07-29T12:26:00;15.53;;;12.20;;
26478;SDS011;14163;-26.142;27.992;2022-07-29T12:28:35;12.80;;;11.20;;
26478;SDS011;14163;-26.142;27.992;2022-07-29T12:31:05;13.77;;;12.37;;
26478;SDS011;14163;-26.142;27.992;2022-07-29T12:33:40;13.37;;;11.97;;
26478;SDS011;14163;-26.142;27.992;2022-07-29T12:36:10;14.43;;;12.60;;
26478;SDS011;14163;-26.142;27.992;2022-07-29T12:38:43;14.30;;;12.70;;
26478;SDS011;14163;-26.142;27.992;2022-07-29T12:41:15;13.20;;;12.10;;
26478;SDS011;14163;-26.142;27.992;2022-07-29T12:43:51;15.80;;;12.80;;
26478;SDS011;14163;-26.142;27.992;2022-07-29T12:46:21;13.27;;;11.80;;
26478;SDS011;14163;-26.142;27.992;2022-07-29T12:48:51;13.77;;;11.20;;
26478;SDS011;14163;-26.142;27.992;2022-07-29T12:51:28;18.17;;;12.47;;
26478;SDS011;14163;-26.142;27.992;2022-07-29T12:54:09;16.60;;;12.20;;
26478;SDS011;14163;-26.142;27.992;2022-07-29T12:56:40;21.23;;;12.63;;
26478;SDS011;14163;-26.142;27.992;2022-07-29T12:59:14;12.73;;;11.63;;
26478;SDS011;14163;-26.142;27.992;2022-07-29T13:01:44;13.20;;;11.97;;
26478;SDS011;14163;-26.142;27.992;2022-07-29T13:04:24;14.20;;;12.43;;
26478;SDS011;14163;-26.142;27.992;2022-07-29T13:07:00;13.87;;;10.90;;
26478;SDS011;14163;-26.142;27.992;2022-07-29T13:09:39;15.93;;;12.67;;
26478;SDS011;14163;-26.142;27.992;2022-07-29T13:12:11;15.27;;;11.80;;
26478;SDS011;14163;-26.142;27.992;2022-07-29T13:14:41;17.57;;;11.70;;
26478;SDS011;14163;-26.142;27.992;2022-07-29T13:17:12;11.57;;;10.57;;
26478;SDS011;14163;-26.142;27.992;2022-07-29T13:19:43;14.23;;;11.50;;
26478;SDS011;14163;-26.142;27.992;2022-07-29T13:22:13;16.33;;;10.40;;
26478;SDS011;14163;-26.142;27.992;2022-07-29T13:24:49;12.00;;;10.90;;
26478;SDS011;14163;-26.142;27.992;2022-07-29T13:27:20;14.43;;;11.60;;
26478;SDS011;14163;-26.142;27.992;2022-07-29T13:29:50;11.20;;;10.10;;
26478;SDS011;14163;-26.142;27.992;2022-07-29T13:32:22;17.73;;;11.10;;
26478;SDS011;14163;-26.142;27.992;2022-07-29T13:34:51;13.23;;;10.97;;
26478;SDS011;14163;-26.142;27.992;2022-07-29T13:37:20;15.30;;;10.10;;
26478;SDS011;14163;-26.142;27.992;2022-07-29T13:39:51;10.57;;;9.57;;
26478;SDS011;14163;-26.142;27.992;2022-07-29T13:42:21;13.33;;;10.33;;
26478;SDS011;14163;-26.142;27.992;2022-07-29T13:44:51;13.23;;;12.00;;
26478;SDS011;14163;-26.142;27.992;2022-07-29T13:47:20;11.40;;;10.30;;
26478;SDS011;14163;-26.142;27.992;2022-07-29T13:49:50;10.40;;;9.50;;
26478;SDS011;14163;-26.142;27.992;2022-07-29T13:52:19;14.50;;;10.23;;
26478;SDS011;14163;-26.142;27.992;2022-07-29T13:54:51;10.53;;;9.63;;
26478;SDS011;14163;-26.142;27.992;2022-07-29T13:57:20;14.33;;;10.97;;
26478;SDS011;14163;-26.142;27.992;2022-07-29T13:59:49;15.20;;;10.27;;
26478;SDS011;14163;-26.142;27.992;2022-07-29T14:02:19;11.13;;;10.03;;
26478;SDS011;14163;-26.142;27.992;2022-07-29T14:04:48;11.17;;;9.80;;
26478;SDS011;14163;-26.142;27.992;2022-07-29T14:07:18;10.90;;;10.00;;
26478;SDS011;14163;-26.142;27.992;2022-07-29T14:09:47;12.53;;;10.50;;
26478;SDS011;14163;-26.142;27.992;2022-07-29T14:12:18;11.43;;;10.40;;
26478;SDS011;14163;-26.142;27.992;2022-07-29T14:14:48;11.57;;;10.20;;
26478;SDS011;14163;-26.142;27.992;2022-07-29T14:17:17;11.27;;;10.27;;
26478;SDS011;14163;-26.142;27.992;2022-07-29T14:19:46;11.67;;;10.57;;
26478;SDS011;14163;-26.142;27.992;2022-07-29T14:22:16;12.33;;;10.70;;
26478;SDS011;14163;-26.142;27.992;2022-07-29T14:24:45;12.00;;;10.80;;
26478;SDS011;14163;-26.142;27.992;2022-07-29T14:27:14;11.70;;;10.60;;
26478;SDS011;14163;-26.142;27.992;2022-07-29T14:29:45;11.27;;;10.17;;
26478;SDS011;14163;-26.142;27.992;2022-07-29T14:32:14;12.70;;;10.43;;